createdAt,value
2018-09-19T00:00:22.309Z,22.00
2018-09-19T00:05:30.731Z,22.00
2018-09-19T00:10:39.175Z,21.90
2018-09-19T00:15:47.689Z,21.80
2018-09-19T00:20:56.049Z,21.70
2018-09-19T00:26:04.362Z,21.60
2018-09-19T00:31:12.798Z,21.50
2018-09-19T00:36:21.125Z,21.50
2018-09-19T00:41:29.470Z,21.70
2018-09-19T00:46:37.800Z,21.60
2018-09-19T00:51:46.123Z,21.60
2018-09-19T00:56:54.405Z,21.40
2018-09-19T01:02:02.812Z,21.20
2018-09-19T01:07:11.229Z,21.30
2018-09-19T01:12:19.637Z,21.40
2018-09-19T01:17:27.998Z,21.50
2018-09-19T01:22:36.488Z,21.40
2018-09-19T01:27:44.697Z,21.40
2018-09-19T01:32:52.964Z,21.40
2018-09-19T01:38:01.321Z,21.40
2018-09-19T01:43:09.733Z,21.40
2018-09-19T01:48:18.021Z,21.30
2018-09-19T01:53:26.473Z,21.20
2018-09-19T01:58:34.837Z,21.10
2018-09-19T02:03:43.138Z,21.00
2018-09-19T02:08:51.472Z,21.00
2018-09-19T02:13:59.790Z,21.00
2018-09-19T02:19:08.521Z,20.80
2018-09-19T02:24:16.815Z,20.70
2018-09-19T02:29:25.217Z,20.60
2018-09-19T02:34:33.543Z,20.50
2018-09-19T02:39:41.967Z,20.30
2018-09-19T02:44:50.292Z,20.10
2018-09-19T02:49:58.729Z,20.10
2018-09-19T02:55:07.085Z,20.00
2018-09-19T03:00:15.267Z,19.60
2018-09-19T03:05:23.699Z,19.70
2018-09-19T03:10:32.047Z,19.70
2018-09-19T03:15:40.502Z,19.60
2018-09-19T03:20:48.914Z,19.60
2018-09-19T03:25:57.202Z,19.50
2018-09-19T03:31:05.662Z,19.50
2018-09-19T03:36:14.014Z,19.40
2018-09-19T03:41:22.278Z,19.30
2018-09-19T03:46:30.476Z,19.30
2018-09-19T03:51:38.756Z,19.20
2018-09-19T03:56:47.183Z,19.20
2018-09-19T04:01:55.474Z,19.20
2018-09-19T04:07:03.841Z,19.10
2018-09-19T04:12:12.222Z,19.00
2018-09-19T04:17:20.618Z,19.00
2018-09-19T04:22:29.033Z,18.80
2018-09-19T04:27:37.342Z,18.80
2018-09-19T04:32:45.754Z,18.70
2018-09-19T04:37:54.118Z,18.60
2018-09-19T04:43:02.582Z,18.60
2018-09-19T04:48:11.021Z,18.60
2018-09-19T04:53:19.342Z,18.50
2018-09-19T04:58:27.805Z,18.50
2018-09-19T05:03:36.109Z,18.50
2018-09-19T05:08:44.397Z,18.60
2018-09-19T05:13:53.018Z,18.60
2018-09-19T05:19:01.434Z,18.70
2018-09-19T05:24:03.595Z,18.80
2018-09-19T05:29:11.870Z,18.80
2018-09-19T05:34:20.302Z,18.80
2018-09-19T05:39:28.704Z,19.00
2018-09-19T05:44:37.006Z,19.10
2018-09-19T05:49:45.525Z,19.10
2018-09-19T05:54:55.258Z,19.40
2018-09-19T06:00:04.098Z,19.60
2018-09-19T06:05:12.481Z,19.80
2018-09-19T06:10:20.779Z,19.90
2018-09-19T06:15:29.113Z,20.10
2018-09-19T06:20:37.342Z,19.90
2018-09-19T06:25:45.690Z,20.20
2018-09-19T06:30:54.043Z,20.40
2018-09-19T06:36:02.353Z,20.80
2018-09-19T06:41:10.749Z,21.20
2018-09-19T06:46:19.024Z,21.70
2018-09-19T06:51:27.402Z,22.10
2018-09-19T06:56:35.656Z,22.20
2018-09-19T07:01:44.018Z,22.80
2018-09-19T07:06:52.338Z,23.00
2018-09-19T07:12:00.632Z,23.50
2018-09-19T07:17:08.946Z,23.80
2018-09-19T07:22:17.366Z,23.80
2018-09-19T07:27:25.737Z,24.30
2018-09-19T07:32:34.049Z,24.60
2018-09-19T07:37:42.357Z,24.50
2018-09-19T07:42:50.766Z,25.10
2018-09-19T07:47:59.153Z,25.20
2018-09-19T07:53:07.521Z,25.80
2018-09-19T07:58:15.810Z,26.00
2018-09-19T08:03:24.145Z,26.00
2018-09-19T08:08:32.508Z,26.20
2018-09-19T08:13:40.830Z,26.80
2018-09-19T08:18:49.173Z,27.20
2018-09-19T08:23:57.606Z,27.10
2018-09-19T08:29:05.988Z,27.70
2018-09-19T08:34:14.211Z,27.60
2018-09-19T08:39:22.642Z,28.00
2018-09-19T08:44:30.948Z,28.60
2018-09-19T08:49:39.292Z,28.80
2018-09-19T08:54:47.551Z,28.70
2018-09-19T08:59:55.863Z,29.10
2018-09-19T09:05:04.174Z,28.90
2018-09-19T09:10:12.533Z,29.00
2018-09-19T09:15:20.835Z,30.20
2018-09-19T09:20:29.182Z,30.10
2018-09-19T09:25:37.606Z,28.40
2018-09-19T09:30:45.876Z,28.30
2018-09-19T09:35:54.206Z,30.20
2018-09-19T09:41:02.585Z,30.90
2018-09-19T09:46:10.919Z,31.10
2018-09-19T09:51:19.186Z,30.30
2018-09-19T09:56:27.506Z,30.80
2018-09-19T10:01:35.864Z,31.90
2018-09-19T10:06:44.114Z,31.90
2018-09-19T10:11:52.346Z,30.60
2018-09-19T10:17:00.677Z,29.10
2018-09-19T10:22:09.078Z,28.80
2018-09-19T10:27:17.434Z,29.00
2018-09-19T10:32:25.854Z,29.40
2018-09-19T10:37:34.178Z,29.20
2018-09-19T10:42:42.694Z,29.00
2018-09-19T10:47:51.072Z,29.30
2018-09-19T10:52:59.449Z,29.60
2018-09-19T10:58:07.827Z,29.10
2018-09-19T11:03:16.210Z,28.80
2018-09-19T11:08:24.510Z,29.00
2018-09-19T11:13:32.877Z,29.40
2018-09-19T11:18:41.206Z,29.20
2018-09-19T11:23:49.514Z,28.70
2018-09-19T11:28:57.877Z,29.00
2018-09-19T11:34:06.391Z,29.10
2018-09-19T11:39:14.601Z,29.30
2018-09-19T11:44:23.003Z,29.30
2018-09-19T11:49:31.325Z,29.50
2018-09-19T11:54:39.802Z,29.30
2018-09-19T11:59:48.153Z,28.90
2018-09-19T12:04:56.537Z,29.10
2018-09-19T12:10:04.923Z,29.30
2018-09-19T12:15:13.216Z,28.90
2018-09-19T12:20:21.570Z,28.80
2018-09-19T12:25:29.881Z,29.00
2018-09-19T12:30:38.246Z,29.30
2018-09-19T12:35:46.602Z,29.40
2018-09-19T12:40:55.038Z,29.60
2018-09-19T12:46:03.374Z,29.70
2018-09-19T12:51:11.583Z,29.30
2018-09-19T12:56:19.890Z,29.60
2018-09-19T13:01:28.208Z,29.80
2018-09-19T13:06:36.516Z,29.60
2018-09-19T13:11:44.873Z,29.50
2018-09-19T13:16:53.285Z,29.70
2018-09-19T13:22:01.649Z,29.60
2018-09-19T13:27:10.074Z,29.60
2018-09-19T13:32:18.289Z,29.80
2018-09-19T13:37:26.637Z,29.70
2018-09-19T13:42:34.982Z,29.70
2018-09-19T13:47:43.299Z,29.80
2018-09-19T13:52:51.588Z,29.70
2018-09-19T13:58:06.837Z,29.70
2018-09-19T14:03:15.070Z,29.60
2018-09-19T14:08:23.441Z,29.60
2018-09-19T14:13:31.816Z,29.70
2018-09-19T14:18:40.102Z,29.70
2018-09-19T14:23:48.565Z,29.50
2018-09-19T14:28:56.869Z,29.70
2018-09-19T14:34:05.261Z,29.70
2018-09-19T14:39:13.591Z,29.80
2018-09-19T14:44:21.969Z,29.60
2018-09-19T14:49:30.418Z,29.60
2018-09-19T14:54:38.786Z,29.60
2018-09-19T14:59:47.257Z,29.60
2018-09-19T15:04:55.438Z,29.30
2018-09-19T15:10:03.826Z,29.30
2018-09-19T15:15:12.291Z,29.30
2018-09-19T15:20:20.636Z,29.40
2018-09-19T15:25:28.977Z,29.20
2018-09-19T15:30:37.295Z,29.10
2018-09-19T15:35:45.590Z,29.10
2018-09-19T15:40:54.084Z,28.90
2018-09-19T15:46:02.362Z,28.80
2018-09-19T15:51:10.806Z,28.70
2018-09-19T15:56:19.233Z,28.60
2018-09-19T16:01:27.566Z,28.50
2018-09-19T16:06:35.951Z,28.50
2018-09-19T16:11:44.263Z,28.70
2018-09-19T16:16:52.645Z,28.70
2018-09-19T16:22:01.026Z,28.80
2018-09-19T16:27:09.347Z,28.70
2018-09-19T16:32:17.655Z,28.70
2018-09-19T16:37:26.081Z,28.80
2018-09-19T16:42:34.497Z,28.70
2018-09-19T16:47:42.899Z,28.70
2018-09-19T16:52:51.124Z,28.60
2018-09-19T16:57:59.469Z,28.40
2018-09-19T17:03:07.890Z,28.30
2018-09-19T17:08:16.186Z,28.10
2018-09-19T17:13:24.589Z,27.90
2018-09-19T17:18:32.935Z,27.70
2018-09-19T17:23:41.762Z,27.60
2018-09-19T17:28:50.105Z,27.50
2018-09-19T17:33:58.429Z,27.30
2018-09-19T17:39:08.466Z,27.10
2018-09-19T17:44:16.769Z,27.00
2018-09-19T17:49:25.059Z,26.80
2018-09-19T17:54:33.365Z,26.70
2018-09-19T17:59:41.788Z,26.60
2018-09-19T18:04:50.149Z,26.50
2018-09-19T18:09:58.425Z,26.40
2018-09-19T18:15:07.486Z,26.30
2018-09-19T18:20:15.973Z,26.20
2018-09-19T18:25:24.397Z,26.10
2018-09-19T18:30:32.790Z,26.00
2018-09-19T18:35:41.154Z,26.00
2018-09-19T18:40:49.369Z,25.90
2018-09-19T18:45:57.678Z,25.80
2018-09-19T18:51:06.042Z,25.90
2018-09-19T18:56:14.478Z,25.90
2018-09-19T19:01:22.841Z,25.80
2018-09-19T19:06:31.349Z,25.80
2018-09-19T19:11:39.658Z,25.80
2018-09-19T19:16:48.026Z,25.60
2018-09-19T19:21:56.354Z,25.50
2018-09-19T19:27:04.702Z,25.40
2018-09-19T19:32:12.928Z,25.30
2018-09-19T19:37:21.283Z,25.00
2018-09-19T19:42:29.715Z,24.90
2018-09-19T19:47:37.941Z,24.80
2018-09-19T19:52:46.273Z,24.70
2018-09-19T19:57:54.714Z,24.60
2018-09-19T20:03:03.029Z,24.50
2018-09-19T20:08:11.390Z,24.40
2018-09-19T20:13:19.811Z,24.20
2018-09-19T20:18:28.233Z,24.10
2018-09-19T20:23:36.493Z,24.00
2018-09-19T20:28:44.846Z,23.80
2018-09-19T20:33:53.189Z,23.70
2018-09-19T20:39:01.554Z,23.40
2018-09-19T20:44:09.858Z,23.40
2018-09-19T20:49:18.145Z,23.40
2018-09-19T20:54:26.409Z,23.40
2018-09-19T20:59:34.782Z,22.90
2018-09-19T21:04:43.169Z,22.60
2018-09-19T21:09:51.518Z,22.40
2018-09-19T21:14:59.975Z,22.60
2018-09-19T21:20:08.293Z,22.60
2018-09-19T21:25:16.715Z,22.60
2018-09-19T21:30:25.047Z,22.60
2018-09-19T21:35:33.798Z,22.50
2018-09-19T21:40:42.469Z,22.50
2018-09-19T21:45:50.717Z,22.30
2018-09-19T21:50:59.016Z,22.20
2018-09-19T21:56:07.481Z,22.00
2018-09-19T22:01:20.401Z,22.10
2018-09-19T22:06:28.736Z,22.00
2018-09-19T22:11:37.650Z,22.00
2018-09-19T22:16:45.913Z,22.00
2018-09-19T22:21:54.209Z,22.00
2018-09-19T22:27:02.577Z,21.80
2018-09-19T22:32:10.981Z,21.80
2018-09-19T22:37:19.326Z,21.70
2018-09-19T22:42:27.779Z,21.80
2018-09-19T22:47:36.045Z,21.50
2018-09-19T22:52:44.795Z,21.50
2018-09-19T22:57:53.018Z,21.50
2018-09-19T23:03:01.383Z,21.50
2018-09-19T23:08:09.742Z,21.50
2018-09-19T23:13:18.157Z,21.20
2018-09-19T23:18:26.435Z,21.30
2018-09-19T23:23:34.733Z,21.20
2018-09-19T23:28:43.109Z,21.10
2018-09-19T23:33:51.518Z,21.20
2018-09-19T23:38:59.895Z,21.20
2018-09-19T23:44:08.218Z,21.00
2018-09-19T23:49:16.555Z,21.10
2018-09-19T23:54:24.881Z,20.90
2018-09-19T23:59:33.243Z,20.80
